createdAt,value
2017-08-25T17:51:32.683Z,48.60
2017-08-25T17:52:35.298Z,48.60
2017-08-25T17:53:37.912Z,49.10
2017-08-25T17:54:40.763Z,49.80
2017-08-25T17:55:44.234Z,49.90
2017-08-25T17:56:47.764Z,50.30
2017-08-25T17:57:51.053Z,50.30
2017-08-25T17:58:53.614Z,50.80
2017-08-25T17:59:56.257Z,50.90
2017-08-25T18:01:00.983Z,51.10
2017-08-25T18:02:03.559Z,51.20
2017-08-25T18:03:07.445Z,51.20
2017-08-25T18:04:10.035Z,51.40
2017-08-25T18:05:12.924Z,51.50
2017-08-25T18:06:15.468Z,51.50
2017-08-25T18:07:18.042Z,51.50
2017-08-25T18:08:20.565Z,51.50
2017-08-25T18:09:24.087Z,51.80
2017-08-25T18:10:26.628Z,51.80
2017-08-25T18:11:29.186Z,51.90
2017-08-25T18:12:32.176Z,51.90
2017-08-25T18:13:35.022Z,52.00
2017-08-25T18:14:37.546Z,52.00
2017-08-25T18:15:40.569Z,52.30
2017-08-25T18:16:43.210Z,50.90
2017-08-25T18:17:45.952Z,50.90
2017-08-25T18:18:48.566Z,51.10
2017-08-25T18:19:51.871Z,52.60
2017-08-25T18:20:54.406Z,52.60
2017-08-25T18:21:56.976Z,52.70
2017-08-25T18:22:59.612Z,52.60
2017-08-25T18:24:02.532Z,52.80
2017-08-25T18:25:05.171Z,52.70
2017-08-25T18:26:07.910Z,52.80
2017-08-25T18:27:10.455Z,52.70
2017-08-25T18:28:12.991Z,52.60
2017-08-25T18:29:15.544Z,52.60
2017-08-25T18:30:18.074Z,52.60
2017-08-25T18:31:20.941Z,52.60
2017-08-25T18:32:24.237Z,52.60
2017-08-25T18:33:26.880Z,52.60
2017-08-25T18:34:29.525Z,52.50
2017-08-25T18:35:32.954Z,52.50
2017-08-25T18:36:36.710Z,52.50
2017-08-25T18:37:39.264Z,52.50
2017-08-25T18:38:41.877Z,52.60
2017-08-25T18:39:44.927Z,52.60
2017-08-25T18:40:47.524Z,52.60
2017-08-25T18:41:50.275Z,52.60
2017-08-25T18:42:53.031Z,52.60
2017-08-25T18:43:55.740Z,52.60
2017-08-25T18:44:58.297Z,52.70
2017-08-25T18:46:00.836Z,52.70
2017-08-25T18:47:03.371Z,52.70
2017-08-25T18:48:05.944Z,52.70
2017-08-25T18:49:08.572Z,52.80
2017-08-25T18:50:11.286Z,52.80
2017-08-25T18:51:14.011Z,52.90
2017-08-25T18:52:16.752Z,52.90
2017-08-25T18:53:19.373Z,52.90
2017-08-25T18:54:21.911Z,53.00
2017-08-25T18:55:24.435Z,53.00
2017-08-25T18:56:27.063Z,53.10
2017-08-25T18:57:29.674Z,53.10
2017-08-25T18:58:32.239Z,53.20
2017-08-25T18:59:34.790Z,53.10
2017-08-25T19:00:37.458Z,53.30
2017-08-25T19:01:39.999Z,53.30
2017-08-25T19:02:43.350Z,52.80
2017-08-25T19:03:45.972Z,53.30
2017-08-25T19:04:48.600Z,53.30
2017-08-25T19:05:51.226Z,53.30
2017-08-25T19:06:53.859Z,53.40
2017-08-25T19:07:56.427Z,53.30
2017-08-25T19:08:58.989Z,53.40
2017-08-25T19:10:01.827Z,53.40
2017-08-25T19:11:04.467Z,53.40
2017-08-25T19:12:06.998Z,53.40
2017-08-25T19:13:09.533Z,53.80
2017-08-25T19:14:12.070Z,54.20
2017-08-25T19:15:14.617Z,53.40
2017-08-25T19:16:17.203Z,53.20
2017-08-25T19:17:20.527Z,53.50
2017-08-25T19:18:23.183Z,53.50
2017-08-25T19:19:26.012Z,53.50
2017-08-25T19:20:28.565Z,53.00
2017-08-25T19:21:31.246Z,53.50
2017-08-25T19:22:33.927Z,53.50
2017-08-25T19:23:36.528Z,53.60
2017-08-25T19:24:39.139Z,53.60
2017-08-25T19:25:41.676Z,53.70
2017-08-25T19:26:44.494Z,53.70
2017-08-25T19:27:47.050Z,53.70
2017-08-25T19:28:49.648Z,53.80
2017-08-25T19:29:52.256Z,53.80
2017-08-25T19:30:54.915Z,53.80
2017-08-25T19:31:57.441Z,53.90
2017-08-25T19:33:00.242Z,53.90
2017-08-25T19:34:02.779Z,53.90
2017-08-25T19:35:05.354Z,53.90
2017-08-25T19:36:07.878Z,54.50
2017-08-25T19:37:11.232Z,53.80
2017-08-25T19:38:13.762Z,53.80
2017-08-25T19:39:16.609Z,53.80
2017-08-25T19:40:22.862Z,53.80
2017-08-25T19:41:25.486Z,53.90
2017-08-25T19:42:28.835Z,53.90
2017-08-25T19:43:32.688Z,54.00
2017-08-25T19:44:35.630Z,54.00
2017-08-25T19:45:40.191Z,54.10
2017-08-25T19:46:47.209Z,54.10
2017-08-25T19:47:53.145Z,54.20
2017-08-25T19:48:56.263Z,54.20
2017-08-25T19:50:01.944Z,54.20
2017-08-25T19:51:05.448Z,54.20
2017-08-25T19:52:10.176Z,54.20
2017-08-25T19:53:14.099Z,54.20
2017-08-25T19:54:17.317Z,54.20
2017-08-25T19:55:22.568Z,54.20
2017-08-25T19:56:27.498Z,54.20
2017-08-25T19:57:30.407Z,54.20
2017-08-25T19:58:34.072Z,54.20
2017-08-25T19:59:37.028Z,54.30
2017-08-25T20:00:39.939Z,54.40
2017-08-25T20:01:43.986Z,54.40
2017-08-25T20:02:46.883Z,54.50
2017-08-25T20:03:50.542Z,54.60
2017-08-25T20:04:54.891Z,55.20
2017-08-25T20:05:57.720Z,54.60
2017-08-25T20:07:00.900Z,54.70
2017-08-25T20:08:04.838Z,54.80
2017-08-25T20:09:07.978Z,55.00
2017-08-25T20:10:11.391Z,55.00
2017-08-25T20:11:13.927Z,55.00
2017-08-25T20:12:16.598Z,55.00
2017-08-25T20:13:19.132Z,55.00
2017-08-25T20:14:22.464Z,55.00
2017-08-25T20:15:25.027Z,55.00
2017-08-25T20:16:29.015Z,55.00
2017-08-25T20:17:31.616Z,55.00
2017-08-25T20:18:34.159Z,55.00
2017-08-25T20:19:36.809Z,55.00
2017-08-25T20:20:39.588Z,55.00
2017-08-25T20:21:42.167Z,55.00
2017-08-25T20:22:45.487Z,55.00
2017-08-25T20:23:48.041Z,55.00
2017-08-25T20:24:52.211Z,55.00
2017-08-25T20:25:54.988Z,55.00
2017-08-25T20:26:58.411Z,55.00
2017-08-25T20:28:01.177Z,55.00
2017-08-25T20:29:04.564Z,55.30
2017-08-25T20:30:07.144Z,55.10
2017-08-25T20:31:09.745Z,55.00
2017-08-25T20:32:13.090Z,55.10
2017-08-25T20:33:16.383Z,55.10
2017-08-25T20:34:18.941Z,55.10
2017-08-25T20:35:22.280Z,55.10
2017-08-25T20:36:25.565Z,55.70
2017-08-25T20:37:28.136Z,55.10
2017-08-25T20:38:31.475Z,55.10
2017-08-25T20:39:34.113Z,55.70
2017-08-25T20:40:39.946Z,55.10
2017-08-25T20:41:44.402Z,55.00
2017-08-25T20:42:47.117Z,55.10
2017-08-25T20:43:49.799Z,55.10
2017-08-25T20:44:53.926Z,55.10
2017-08-25T20:45:56.553Z,55.10
2017-08-25T20:46:59.199Z,55.10
2017-08-25T20:48:01.775Z,55.20
2017-08-25T20:49:04.429Z,55.20
2017-08-25T20:50:06.968Z,55.20
2017-08-25T20:51:09.673Z,55.20
2017-08-25T20:52:12.315Z,55.30
2017-08-25T20:53:14.854Z,55.30
2017-08-25T20:54:19.241Z,55.30
2017-08-25T20:55:21.917Z,55.30
2017-08-25T20:56:24.568Z,55.30
2017-08-25T20:57:27.482Z,55.30
2017-08-25T20:58:30.970Z,55.30
2017-08-25T20:59:34.994Z,55.30
2017-08-25T21:00:37.567Z,55.30
2017-08-25T21:01:40.627Z,55.30
2017-08-25T21:02:43.230Z,55.30
2017-08-25T21:03:45.957Z,55.30
2017-08-25T21:04:48.747Z,55.30
2017-08-25T21:05:52.106Z,55.40
2017-08-25T21:06:55.246Z,55.30
2017-08-25T21:07:57.805Z,55.40
2017-08-25T21:09:00.418Z,55.30
2017-08-25T21:10:03.773Z,55.30
2017-08-25T21:11:06.370Z,55.30
2017-08-25T21:12:09.818Z,55.40
2017-08-25T21:13:12.625Z,55.30
2017-08-25T21:14:15.194Z,55.00
2017-08-25T21:15:17.772Z,55.20
2017-08-25T21:16:20.335Z,55.30
2017-08-25T21:17:23.047Z,55.30
2017-08-25T21:18:25.587Z,55.30
2017-08-25T21:19:28.212Z,55.30
2017-08-25T21:20:30.748Z,55.30
2017-08-25T21:21:33.359Z,55.30
2017-08-25T21:22:36.098Z,55.30
2017-08-25T21:23:38.723Z,55.30
2017-08-25T21:24:42.592Z,55.40
2017-08-25T21:25:45.127Z,55.30
2017-08-25T21:26:47.743Z,55.40
2017-08-25T21:27:50.307Z,55.40
2017-08-25T21:28:52.945Z,55.50
2017-08-25T21:29:55.530Z,55.50
2017-08-25T21:30:58.483Z,55.50
2017-08-25T21:32:01.819Z,55.50
2017-08-25T21:33:05.235Z,55.50
2017-08-25T21:34:07.788Z,55.50
2017-08-25T21:35:10.326Z,55.50
2017-08-25T21:36:12.863Z,55.50
2017-08-25T21:37:15.473Z,55.50
2017-08-25T21:38:18.164Z,55.50
2017-08-25T21:39:20.990Z,55.60
2017-08-25T21:40:23.636Z,55.50
2017-08-25T21:41:26.575Z,55.50
2017-08-25T21:42:29.461Z,55.50
2017-08-25T21:43:32.117Z,55.60
2017-08-25T21:44:34.667Z,55.50
2017-08-25T21:45:37.516Z,55.60
2017-08-25T21:46:40.086Z,55.60
2017-08-25T21:47:42.849Z,55.60
2017-08-25T21:48:45.488Z,55.60
2017-08-25T21:49:48.024Z,55.50
2017-08-25T21:50:50.889Z,55.60
2017-08-25T21:51:53.497Z,55.50
2017-08-25T21:52:56.251Z,55.60
2017-08-25T21:53:58.831Z,55.70
2017-08-25T21:55:01.479Z,55.70
2017-08-25T21:56:04.099Z,55.80
2017-08-25T21:57:07.001Z,56.10
2017-08-25T21:58:10.363Z,56.30
2017-08-25T21:59:12.988Z,56.60
2017-08-25T22:00:15.620Z,56.90
2017-08-25T22:01:18.268Z,57.10
2017-08-25T22:02:20.841Z,57.40
2017-08-25T22:03:23.390Z,57.70
2017-08-25T22:04:26.009Z,57.90
2017-08-25T22:05:28.561Z,58.20
2017-08-25T22:06:31.112Z,58.60
2017-08-25T22:07:33.667Z,59.00
2017-08-25T22:08:36.279Z,59.80
2017-08-25T22:09:39.151Z,59.00
2017-08-25T22:10:41.790Z,58.80
2017-08-25T22:11:44.495Z,58.80
2017-08-25T22:12:47.056Z,58.80
2017-08-25T22:13:50.391Z,58.70
2017-08-25T22:14:53.771Z,58.70
2017-08-25T22:15:56.947Z,58.40
2017-08-25T22:16:59.904Z,58.40
2017-08-25T22:18:02.444Z,58.10
2017-08-25T22:19:05.007Z,58.30
2017-08-25T22:20:08.614Z,58.70
2017-08-25T22:21:11.252Z,58.30
2017-08-25T22:22:13.783Z,58.10
2017-08-25T22:23:17.111Z,57.60
2017-08-25T22:24:19.745Z,57.60
2017-08-25T22:25:22.314Z,57.90
2017-08-25T22:26:24.890Z,58.10
2017-08-25T22:27:27.510Z,57.60
2017-08-25T22:28:30.134Z,57.80
2017-08-25T22:29:32.694Z,59.20
2017-08-25T22:30:35.244Z,60.30
2017-08-25T22:31:37.818Z,60.10
2017-08-25T22:32:40.580Z,59.80
2017-08-25T22:33:43.198Z,59.60
2017-08-25T22:34:45.835Z,59.50
2017-08-25T22:35:48.447Z,59.10
2017-08-25T22:36:51.258Z,58.70
2017-08-25T22:37:53.948Z,59.40
2017-08-25T22:38:56.496Z,59.30
2017-08-25T22:39:59.042Z,59.20
2017-08-25T22:41:02.508Z,58.80
2017-08-25T22:42:05.119Z,58.90
2017-08-25T22:43:07.653Z,58.80
2017-08-25T22:44:10.354Z,58.70
2017-08-25T22:45:12.972Z,58.10
2017-08-25T22:46:15.521Z,56.90
2017-08-25T22:47:18.173Z,56.80
2017-08-25T22:48:20.800Z,56.60
2017-08-25T22:49:23.556Z,56.50
2017-08-25T22:50:26.096Z,56.50
2017-08-25T22:51:28.684Z,56.50
2017-08-25T22:52:32.022Z,56.20
2017-08-25T22:53:34.554Z,56.40
2017-08-25T22:54:37.162Z,56.60
2017-08-25T22:55:39.702Z,57.10
2017-08-25T22:56:42.336Z,56.20
2017-08-25T22:57:44.957Z,56.50
2017-08-25T22:58:47.590Z,56.50
2017-08-25T22:59:50.142Z,56.40
2017-08-25T23:00:52.825Z,55.60
2017-08-25T23:01:55.370Z,55.80
2017-08-25T23:02:58.367Z,55.60
2017-08-25T23:04:01.731Z,56.30
2017-08-25T23:05:04.275Z,55.70
2017-08-25T23:06:06.884Z,56.40
2017-08-25T23:07:09.518Z,55.80
2017-08-25T23:08:12.058Z,55.90
2017-08-25T23:09:14.590Z,55.90
2017-08-25T23:10:17.825Z,56.10
2017-08-25T23:11:20.366Z,56.20
2017-08-25T23:12:22.906Z,56.20
2017-08-25T23:13:25.468Z,56.30
2017-08-25T23:14:28.164Z,56.30
2017-08-25T23:15:31.459Z,56.40
2017-08-25T23:16:34.022Z,56.40
2017-08-25T23:17:36.644Z,56.40
2017-08-25T23:18:39.215Z,56.40
2017-08-25T23:19:41.788Z,56.50
2017-08-25T23:20:44.415Z,56.50
2017-08-25T23:21:47.122Z,57.10
2017-08-25T23:22:49.767Z,56.50
2017-08-25T23:23:52.308Z,56.50
2017-08-25T23:24:54.878Z,56.50
2017-08-25T23:25:57.426Z,56.50
2017-08-25T23:27:00.004Z,56.60
2017-08-25T23:28:02.600Z,56.50
2017-08-25T23:29:05.212Z,56.50
2017-08-25T23:30:07.753Z,56.50
2017-08-25T23:31:10.375Z,56.50
2017-08-25T23:32:12.912Z,57.20
2017-08-25T23:33:15.552Z,56.50
2017-08-25T23:34:18.175Z,56.60
2017-08-25T23:35:20.727Z,56.60
2017-08-25T23:36:23.279Z,56.50
2017-08-25T23:37:25.933Z,56.50
2017-08-25T23:38:28.570Z,56.50
2017-08-25T23:39:31.119Z,56.60
2017-08-25T23:40:33.678Z,56.60
2017-08-25T23:41:36.262Z,56.70
2017-08-25T23:42:38.965Z,56.80
2017-08-25T23:43:41.828Z,56.80
2017-08-25T23:44:45.263Z,56.70
2017-08-25T23:45:47.807Z,56.70
2017-08-25T23:46:50.350Z,57.00
2017-08-25T23:47:52.938Z,56.60
2017-08-25T23:48:55.493Z,56.60
2017-08-25T23:49:58.034Z,57.20
2017-08-25T23:51:00.568Z,56.60
2017-08-25T23:52:03.103Z,56.50
2017-08-25T23:53:06.694Z,56.70
2017-08-25T23:54:10.047Z,57.10
2017-08-25T23:55:12.578Z,56.60
2017-08-25T23:56:15.884Z,56.80
2017-08-25T23:57:18.418Z,56.70
2017-08-25T23:58:20.958Z,56.70
2017-08-25T23:59:23.491Z,56.80
